createdAt,value
2022-10-17T00:00:30.067Z,3.88
2022-10-17T00:02:56.727Z,3.90
2022-10-17T00:05:23.900Z,4.20
2022-10-17T00:07:50.632Z,4.13
2022-10-17T00:10:17.209Z,4.25
2022-10-17T00:12:43.548Z,4.07
2022-10-17T00:15:14.646Z,4.40
2022-10-17T00:17:41.928Z,4.55
2022-10-17T00:20:08.558Z,4.45
2022-10-17T00:25:06.539Z,4.95
2022-10-17T00:27:37.824Z,4.67
2022-10-17T00:30:05.860Z,4.28
2022-10-17T00:32:32.269Z,4.85
2022-10-17T00:34:59.209Z,5.30
2022-10-17T00:37:25.673Z,4.85
2022-10-17T00:39:52.097Z,5.13
2022-10-17T00:42:18.463Z,5.20
2022-10-17T00:44:47.409Z,5.15
2022-10-17T00:47:19.447Z,4.55
2022-10-17T00:49:46.020Z,5.05
2022-10-17T00:52:17.743Z,4.97
2022-10-17T00:54:49.137Z,5.50
2022-10-17T00:57:16.756Z,5.95
2022-10-17T00:59:45.598Z,5.57
2022-10-17T01:02:16.207Z,6.00
2022-10-17T01:04:46.050Z,6.13
2022-10-17T01:07:12.625Z,6.05
2022-10-17T01:09:40.058Z,5.85
2022-10-17T01:12:21.913Z,5.80
2022-10-17T01:15:06.434Z,6.25
2022-10-17T01:18:03.493Z,6.33
2022-10-17T01:20:54.707Z,5.88
2022-10-17T01:23:58.559Z,6.45
2022-10-17T01:26:40.019Z,5.95
2022-10-17T01:29:28.400Z,6.50
2022-10-17T01:32:14.394Z,6.13
2022-10-17T01:34:47.088Z,6.20
2022-10-17T01:37:26.181Z,6.40
2022-10-17T01:40:15.868Z,6.22
2022-10-17T01:42:45.566Z,6.18
2022-10-17T01:45:18.214Z,6.70
2022-10-17T01:47:47.641Z,6.40
2022-10-17T01:50:24.311Z,6.53
2022-10-17T01:52:59.876Z,6.82
2022-10-17T01:55:34.103Z,6.38
2022-10-17T01:58:21.807Z,6.47
2022-10-17T02:00:49.563Z,6.70
2022-10-17T02:03:19.128Z,6.72
2022-10-17T02:05:46.114Z,6.80
2022-10-17T02:08:13.059Z,6.20
2022-10-17T02:10:46.336Z,6.80
2022-10-17T02:13:32.856Z,6.72
2022-10-17T02:16:11.883Z,6.60
2022-10-17T02:18:44.064Z,7.15
2022-10-17T02:21:21.334Z,7.00
2022-10-17T02:23:56.783Z,7.07
2022-10-17T02:26:33.018Z,7.07
2022-10-17T02:29:14.587Z,7.40
2022-10-17T02:31:49.971Z,7.63
2022-10-17T02:34:21.541Z,7.47
2022-10-17T02:36:53.636Z,7.30
2022-10-17T02:39:23.410Z,6.97
2022-10-17T02:41:52.262Z,6.95
2022-10-17T02:44:20.164Z,7.55
2022-10-17T02:47:04.999Z,7.18
2022-10-17T02:49:35.964Z,7.93
2022-10-17T02:52:12.798Z,8.20
2022-10-17T02:54:53.296Z,7.60
2022-10-17T02:57:39.685Z,7.88
2022-10-17T03:00:09.799Z,8.05
2022-10-17T03:02:42.990Z,8.77
2022-10-17T03:05:11.355Z,8.40
2022-10-17T03:07:38.206Z,8.35
2022-10-17T03:10:05.202Z,9.23
2022-10-17T03:12:31.867Z,8.07
2022-10-17T03:14:58.387Z,8.03
2022-10-17T03:17:24.863Z,8.73
2022-10-17T03:19:51.256Z,8.57
2022-10-17T03:22:17.663Z,8.57
2022-10-17T03:24:44.058Z,8.93
2022-10-17T03:27:10.763Z,8.67
2022-10-17T03:29:37.117Z,9.02
2022-10-17T03:32:03.581Z,9.63
2022-10-17T03:34:30.548Z,9.25
2022-10-17T03:36:56.954Z,9.13
2022-10-17T03:39:23.487Z,9.50
2022-10-17T03:41:49.825Z,9.30
2022-10-17T03:44:16.354Z,9.52
2022-10-17T03:46:42.727Z,9.18
2022-10-17T03:49:09.479Z,9.38
2022-10-17T03:51:36.754Z,9.10
2022-10-17T03:54:03.391Z,8.98
2022-10-17T03:56:29.780Z,9.45
2022-10-17T03:58:56.354Z,9.45
2022-10-17T04:01:23.649Z,10.02
2022-10-17T04:03:55.601Z,9.60
2022-10-17T04:06:22.327Z,9.63
2022-10-17T04:08:49.468Z,10.25
2022-10-17T04:11:18.820Z,9.02
2022-10-17T04:13:46.013Z,9.73
2022-10-17T04:16:17.073Z,10.37
2022-10-17T04:18:44.539Z,9.93
2022-10-17T04:21:11.697Z,9.73
2022-10-17T04:23:38.522Z,9.55
2022-10-17T04:26:06.264Z,10.25
2022-10-17T04:28:33.691Z,9.77
2022-10-17T04:31:05.358Z,10.27
2022-10-17T04:33:32.763Z,9.85
2022-10-17T04:36:07.835Z,10.48
2022-10-17T04:38:34.609Z,9.70
2022-10-17T04:41:03.209Z,10.00
2022-10-17T04:43:34.843Z,10.02
2022-10-17T04:46:02.972Z,10.15
2022-10-17T04:48:29.483Z,10.20
2022-10-17T04:50:57.682Z,10.85
2022-10-17T04:53:24.755Z,10.30
2022-10-17T04:55:51.412Z,10.35
2022-10-17T04:58:18.755Z,10.90
2022-10-17T05:00:45.216Z,11.35
2022-10-17T05:03:12.035Z,11.13
2022-10-17T05:05:40.024Z,11.30
2022-10-17T05:08:08.087Z,10.90
2022-10-17T05:10:42.595Z,10.52
2022-10-17T05:13:09.794Z,11.55
2022-10-17T05:15:37.195Z,11.52
2022-10-17T05:18:05.086Z,11.63
2022-10-17T05:20:32.236Z,11.50
2022-10-17T05:23:00.044Z,11.52
2022-10-17T05:25:26.424Z,12.02
2022-10-17T05:27:53.807Z,12.10
2022-10-17T05:30:20.232Z,11.43
2022-10-17T05:32:46.632Z,12.20
2022-10-17T05:35:12.976Z,11.27
2022-10-17T05:37:39.399Z,12.02
2022-10-17T05:40:06.544Z,11.48
2022-10-17T05:42:33.369Z,11.87
2022-10-17T05:45:00.011Z,12.57
2022-10-17T05:47:26.538Z,12.10
2022-10-17T05:49:53.035Z,12.10
2022-10-17T05:52:19.519Z,11.98
2022-10-17T05:54:45.991Z,12.83
2022-10-17T05:57:12.350Z,12.20
2022-10-17T05:59:38.689Z,12.23
2022-10-17T06:02:05.220Z,12.52
2022-10-17T06:04:31.685Z,12.43
2022-10-17T06:06:58.033Z,12.13
2022-10-17T06:09:24.485Z,13.07
2022-10-17T06:11:50.849Z,12.10
2022-10-17T06:14:17.213Z,13.00
2022-10-17T06:16:43.652Z,12.50
2022-10-17T06:19:11.501Z,11.40
2022-10-17T06:21:38.820Z,12.32
2022-10-17T06:24:05.542Z,12.50
2022-10-17T06:26:31.917Z,12.55
2022-10-17T06:28:58.347Z,12.43
2022-10-17T06:31:24.738Z,12.40
2022-10-17T06:33:51.135Z,12.18
2022-10-17T06:36:17.714Z,11.57
2022-10-17T06:38:44.113Z,12.20
2022-10-17T06:41:14.122Z,12.05
2022-10-17T06:43:43.279Z,11.67
2022-10-17T06:46:09.722Z,11.80
2022-10-17T06:48:36.203Z,11.90
2022-10-17T06:51:04.506Z,10.93
2022-10-17T06:53:32.940Z,11.80
2022-10-17T06:56:04.249Z,11.83
2022-10-17T06:58:32.674Z,11.60
2022-10-17T07:01:05.517Z,11.85
2022-10-17T07:03:32.617Z,12.15
2022-10-17T07:05:59.244Z,11.70
2022-10-17T07:08:26.545Z,11.33
2022-10-17T07:10:53.383Z,11.00
2022-10-17T07:13:19.760Z,12.05
2022-10-17T07:15:46.550Z,11.60
2022-10-17T07:18:13.248Z,11.60
2022-10-17T07:20:40.307Z,11.40
2022-10-17T07:23:06.830Z,11.20
2022-10-17T07:25:36.369Z,10.75
2022-10-17T07:28:05.687Z,10.55
2022-10-17T07:30:32.898Z,11.25
2022-10-17T07:32:59.300Z,11.20
2022-10-17T07:35:25.683Z,11.05
2022-10-17T07:37:52.036Z,10.73
2022-10-17T07:40:18.475Z,10.48
2022-10-17T07:42:45.002Z,9.80
2022-10-17T07:45:11.458Z,10.47
2022-10-17T07:47:37.923Z,10.75
2022-10-17T07:50:05.332Z,10.20
2022-10-17T07:52:32.129Z,9.45
2022-10-17T07:54:58.911Z,9.73
2022-10-17T07:57:25.872Z,9.40
2022-10-17T07:59:54.071Z,9.38
2022-10-17T08:02:25.603Z,8.93
2022-10-17T08:04:53.251Z,8.65
2022-10-17T08:07:24.323Z,9.48
2022-10-17T08:09:54.882Z,8.90
2022-10-17T08:12:21.947Z,8.32
2022-10-17T08:14:48.372Z,8.85
2022-10-17T08:17:14.735Z,8.40
2022-10-17T08:19:41.192Z,8.50
2022-10-17T08:22:08.176Z,7.67
2022-10-17T08:24:34.844Z,7.80
2022-10-17T08:27:01.324Z,6.97
2022-10-17T08:29:27.940Z,7.10
2022-10-17T08:31:58.691Z,6.88
2022-10-17T08:34:28.391Z,7.00
2022-10-17T08:36:54.842Z,6.95
2022-10-17T08:39:21.229Z,6.63
2022-10-17T08:42:38.571Z,6.85
2022-10-17T08:45:24.221Z,6.47
2022-10-17T08:48:09.792Z,6.70
2022-10-17T08:50:42.480Z,7.13
2022-10-17T08:53:30.090Z,6.80
2022-10-17T08:55:58.014Z,6.72
2022-10-17T08:58:31.418Z,7.03
2022-10-17T09:01:16.491Z,6.73
2022-10-17T09:04:01.115Z,6.30
2022-10-17T09:06:33.631Z,6.82
2022-10-17T09:09:10.656Z,6.72
2022-10-17T09:11:43.240Z,6.95
2022-10-17T09:14:34.482Z,7.10
2022-10-17T09:17:15.491Z,6.32
2022-10-17T09:19:49.535Z,7.00
2022-10-17T09:22:20.525Z,6.45
2022-10-17T09:24:56.896Z,6.72
2022-10-17T09:27:24.797Z,6.87
2022-10-17T09:30:01.255Z,6.93
2022-10-17T09:32:28.847Z,7.35
2022-10-17T09:34:55.811Z,7.25
2022-10-17T09:37:30.772Z,7.28
2022-10-17T09:39:57.617Z,7.33
2022-10-17T09:42:26.947Z,7.25
2022-10-17T09:45:16.207Z,7.47
2022-10-17T09:50:28.972Z,7.57
2022-10-17T09:53:00.291Z,7.37
2022-10-17T09:55:39.003Z,7.88
2022-10-17T09:58:07.663Z,7.63
2022-10-17T10:00:43.266Z,7.10
2022-10-17T10:03:12.675Z,7.30
2022-10-17T10:05:40.355Z,7.40
2022-10-17T10:08:15.086Z,7.80
2022-10-17T10:10:43.218Z,7.55
2022-10-17T10:13:15.746Z,7.80
2022-10-17T10:15:45.336Z,7.32
2022-10-17T10:21:19.540Z,7.78
2022-10-17T10:24:03.385Z,7.95
2022-10-17T10:26:39.146Z,8.38
2022-10-17T10:29:20.969Z,8.45
2022-10-17T10:31:48.341Z,8.43
2022-10-17T10:34:28.725Z,9.10
2022-10-17T10:37:04.205Z,9.45
2022-10-17T10:39:39.742Z,8.90
2022-10-17T10:42:18.501Z,9.65
2022-10-17T10:44:45.363Z,9.07
2022-10-17T10:47:18.925Z,9.18
2022-10-17T10:49:45.736Z,8.85
2022-10-17T10:52:20.648Z,10.15
2022-10-17T10:54:59.531Z,9.73
2022-10-17T10:57:30.807Z,10.20
2022-10-17T11:00:06.558Z,10.00
2022-10-17T11:02:48.973Z,9.88
2022-10-17T11:05:22.855Z,9.48
2022-10-17T11:08:11.184Z,9.60
2022-10-17T11:10:45.257Z,9.60
2022-10-17T11:13:15.768Z,10.48
2022-10-17T11:15:51.432Z,11.10
2022-10-17T11:18:39.350Z,11.00
2022-10-17T11:21:20.743Z,11.07
2022-10-17T11:23:53.142Z,11.17
2022-10-17T11:26:28.625Z,10.98
2022-10-17T11:29:01.980Z,10.70
2022-10-17T11:31:40.759Z,11.13
2022-10-17T11:34:19.340Z,10.52
2022-10-17T11:36:48.777Z,10.80
2022-10-17T11:39:23.701Z,11.02
2022-10-17T11:41:57.503Z,11.52
2022-10-17T11:44:35.883Z,11.00
2022-10-17T11:47:27.796Z,11.75
2022-10-17T11:53:00.520Z,11.27
2022-10-17T11:55:29.941Z,11.02
2022-10-17T11:58:01.205Z,10.90
2022-10-17T12:00:42.766Z,11.38
2022-10-17T12:03:27.254Z,11.40
2022-10-17T12:06:32.599Z,11.43
2022-10-17T12:09:40.823Z,12.02
2022-10-17T12:12:07.271Z,12.00
2022-10-17T12:14:33.575Z,11.18
2022-10-17T12:17:01.822Z,10.90
2022-10-17T12:19:32.507Z,12.07
2022-10-17T12:22:03.657Z,11.68
2022-10-17T12:24:43.094Z,12.02
2022-10-17T12:27:34.120Z,11.60
2022-10-17T12:30:12.706Z,12.00
2022-10-17T12:33:05.633Z,12.63
2022-10-17T12:35:34.812Z,11.80
2022-10-17T12:38:13.807Z,10.50
2022-10-17T12:40:48.419Z,10.30
2022-10-17T12:43:15.477Z,9.70
2022-10-17T12:45:46.386Z,9.80
2022-10-17T12:48:12.820Z,9.48
2022-10-17T12:51:17.686Z,8.82
2022-10-17T12:54:11.855Z,9.40
2022-10-17T12:56:39.595Z,8.37
2022-10-17T12:59:12.848Z,8.70
2022-10-17T13:01:40.291Z,9.20
2022-10-17T13:04:10.745Z,8.52
2022-10-17T13:06:44.790Z,8.32
2022-10-17T13:09:26.152Z,8.17
2022-10-17T13:11:54.019Z,8.13
2022-10-17T13:14:23.288Z,8.18
2022-10-17T13:16:57.862Z,8.93
2022-10-17T13:19:30.936Z,7.82
2022-10-17T13:22:06.784Z,8.37
2022-10-17T13:24:39.442Z,7.95
2022-10-17T13:27:21.629Z,8.13
2022-10-17T13:29:48.170Z,8.00
2022-10-17T13:32:14.563Z,8.43
2022-10-17T13:34:40.980Z,7.60
2022-10-17T13:37:12.518Z,7.22
2022-10-17T13:39:55.241Z,7.75
2022-10-17T13:42:30.084Z,7.72
2022-10-17T13:44:58.599Z,7.75
2022-10-17T13:47:28.677Z,8.20
2022-10-17T13:49:56.645Z,8.10
2022-10-17T13:52:29.314Z,7.55
2022-10-17T13:55:08.075Z,7.82
2022-10-17T13:57:34.767Z,6.38
2022-10-17T14:00:09.947Z,5.37
2022-10-17T14:02:38.283Z,4.90
2022-10-17T14:05:23.618Z,4.20
2022-10-17T14:10:43.292Z,3.58
2022-10-17T14:13:27.626Z,4.07
2022-10-17T14:15:55.626Z,3.78
2022-10-17T14:18:26.786Z,4.00
2022-10-17T14:23:44.274Z,3.58
2022-10-17T14:26:17.525Z,4.23
2022-10-17T14:28:47.392Z,4.32
2022-10-17T14:31:28.678Z,4.40
2022-10-17T14:33:56.010Z,4.30
2022-10-17T14:36:32.879Z,4.50
2022-10-17T14:38:59.951Z,4.30
2022-10-17T14:41:48.086Z,4.10
2022-10-17T14:44:30.624Z,4.22
2022-10-17T14:47:30.447Z,4.60
2022-10-17T14:49:52.018Z,4.72
2022-10-17T14:52:29.007Z,4.20
2022-10-17T14:54:57.996Z,4.70
2022-10-17T14:57:33.713Z,4.72
2022-10-17T15:00:00.222Z,5.05
2022-10-17T15:02:29.451Z,4.55
2022-10-17T15:04:56.272Z,3.97
2022-10-17T15:07:23.696Z,4.30
2022-10-17T15:09:52.659Z,4.35
2022-10-17T15:12:21.954Z,4.15
2022-10-17T15:14:48.551Z,3.55
2022-10-17T15:17:21.530Z,3.00
2022-10-17T15:19:48.425Z,2.60
2022-10-17T15:22:16.094Z,3.42
2022-10-17T15:24:42.917Z,3.03
2022-10-17T15:27:16.523Z,2.92
2022-10-17T15:29:43.576Z,2.77
2022-10-17T15:32:10.021Z,2.22
2022-10-17T15:34:36.487Z,2.38
2022-10-17T15:37:04.246Z,1.80
2022-10-17T15:39:30.679Z,1.70
2022-10-17T15:41:57.569Z,1.50
2022-10-17T15:44:23.914Z,1.33
2022-10-17T15:46:50.259Z,1.33
2022-10-17T15:49:18.454Z,1.35
2022-10-17T15:51:44.937Z,1.17
2022-10-17T15:56:45.900Z,1.50
2022-10-17T15:59:15.465Z,2.00
2022-10-17T16:01:42.452Z,2.10
2022-10-17T16:04:15.081Z,2.10
2022-10-17T16:06:42.800Z,2.10
2022-10-17T16:09:09.666Z,2.20
2022-10-17T16:11:39.619Z,2.28
2022-10-17T16:14:10.241Z,3.35
2022-10-17T16:16:36.664Z,3.45
2022-10-17T16:19:03.827Z,3.40
2022-10-17T16:21:33.081Z,3.20
2022-10-17T16:24:00.493Z,2.38
2022-10-17T16:26:27.991Z,2.45
2022-10-17T16:28:55.312Z,2.65
2022-10-17T16:31:30.861Z,3.07
2022-10-17T16:33:58.857Z,3.88
2022-10-17T16:36:25.664Z,3.50
2022-10-17T16:38:54.099Z,4.85
2022-10-17T16:41:23.999Z,4.90
2022-10-17T16:43:51.866Z,4.10
2022-10-17T16:46:18.538Z,3.47
2022-10-17T16:48:45.710Z,3.70
2022-10-17T16:51:13.810Z,3.40
2022-10-17T16:53:43.591Z,3.53
2022-10-17T16:56:12.829Z,3.60
2022-10-17T16:58:40.674Z,3.60
2022-10-17T17:01:11.029Z,3.58
2022-10-17T17:03:38.912Z,3.80
2022-10-17T17:06:06.690Z,4.10
2022-10-17T17:08:34.426Z,4.33
2022-10-17T17:11:00.813Z,4.60
2022-10-17T17:13:29.333Z,4.82
2022-10-17T17:16:09.944Z,5.30
2022-10-17T17:18:36.814Z,4.85
2022-10-17T17:21:05.690Z,5.80
2022-10-17T17:23:34.823Z,5.13
2022-10-17T17:26:05.980Z,5.13
2022-10-17T17:28:33.884Z,5.40
2022-10-17T17:31:00.481Z,5.63
2022-10-17T17:33:29.712Z,5.90
2022-10-17T17:35:58.177Z,5.75
2022-10-17T17:38:24.766Z,5.80
2022-10-17T17:40:51.512Z,5.55
2022-10-17T17:43:18.743Z,5.90
2022-10-17T17:45:45.209Z,5.93
2022-10-17T17:48:12.338Z,7.25
2022-10-17T17:50:40.424Z,7.32
2022-10-17T17:53:08.458Z,6.90
2022-10-17T17:55:35.927Z,6.70
2022-10-17T17:58:03.375Z,7.10
2022-10-17T18:00:29.802Z,7.70
2022-10-17T18:02:57.204Z,7.32
2022-10-17T18:05:23.682Z,7.32
2022-10-17T18:07:50.124Z,7.50
2022-10-17T18:10:16.574Z,8.10
2022-10-17T18:12:43.222Z,8.00
2022-10-17T18:15:09.978Z,8.32
2022-10-17T18:17:36.645Z,7.80
2022-10-17T18:20:04.004Z,8.50
2022-10-17T18:22:30.510Z,8.63
2022-10-17T18:24:57.023Z,9.00
2022-10-17T18:27:23.372Z,8.75
2022-10-17T18:29:51.100Z,8.55
2022-10-17T18:32:17.943Z,9.38
2022-10-17T18:34:44.349Z,9.50
2022-10-17T18:37:10.721Z,9.05
2022-10-17T18:39:37.185Z,9.80
2022-10-17T18:42:03.571Z,10.55
2022-10-17T18:44:30.172Z,10.75
2022-10-17T18:46:59.861Z,11.57
2022-10-17T18:49:29.492Z,9.95
2022-10-17T18:51:55.891Z,11.07
2022-10-17T18:54:22.331Z,11.57
2022-10-17T18:56:55.098Z,11.38
2022-10-17T18:59:21.948Z,10.93
2022-10-17T19:01:48.535Z,11.55
2022-10-17T19:04:15.145Z,11.77
2022-10-17T19:06:42.047Z,11.93
2022-10-17T19:09:10.610Z,12.18
2022-10-17T19:11:38.151Z,12.33
2022-10-17T19:14:12.623Z,12.00
2022-10-17T19:16:42.257Z,12.95
2022-10-17T19:19:18.239Z,12.30
2022-10-17T19:21:44.756Z,12.10
2022-10-17T19:24:14.571Z,12.93
2022-10-17T19:26:42.225Z,13.13
2022-10-17T19:29:10.561Z,12.77
2022-10-17T19:31:37.086Z,13.45
2022-10-17T19:34:04.341Z,14.50
2022-10-17T19:36:33.901Z,13.70
2022-10-17T19:39:02.851Z,13.73
2022-10-17T19:41:29.486Z,14.80
2022-10-17T19:43:55.902Z,14.25
2022-10-17T19:46:25.095Z,14.73
2022-10-17T19:48:51.960Z,15.57
2022-10-17T19:51:20.157Z,14.65
2022-10-17T19:53:47.221Z,15.70
2022-10-17T19:56:13.914Z,15.70
2022-10-17T19:58:46.502Z,15.98
2022-10-17T20:01:22.293Z,16.50
2022-10-17T20:03:50.001Z,17.40
2022-10-17T20:06:17.434Z,17.33
2022-10-17T20:08:44.328Z,17.08
2022-10-17T20:11:14.248Z,18.65
2022-10-17T20:13:40.911Z,19.03
2022-10-17T20:16:08.963Z,17.25
2022-10-17T20:18:35.560Z,18.73
2022-10-17T20:21:05.292Z,18.73
2022-10-17T20:23:32.016Z,18.20
2022-10-17T20:26:13.549Z,18.13
2022-10-17T20:28:47.873Z,19.38
2022-10-17T20:31:15.395Z,19.70
2022-10-17T20:33:41.835Z,19.67
2022-10-17T20:36:11.469Z,21.13
2022-10-17T20:38:37.913Z,19.13
2022-10-17T20:41:08.759Z,21.25
2022-10-17T20:43:36.026Z,19.67
2022-10-17T20:46:15.458Z,19.52
2022-10-17T20:48:53.723Z,19.33
2022-10-17T20:51:21.040Z,19.77
2022-10-17T20:53:48.029Z,20.15
2022-10-17T20:56:21.392Z,18.77
2022-10-17T20:58:56.421Z,20.17
2022-10-17T21:01:23.912Z,19.83
2022-10-17T21:03:51.103Z,20.53
2022-10-17T21:06:18.511Z,20.00
2022-10-17T21:08:46.285Z,21.73
2022-10-17T21:11:18.277Z,20.48
2022-10-17T21:13:45.791Z,21.17
2022-10-17T21:16:16.961Z,22.20
2022-10-17T21:18:44.117Z,21.20
2022-10-17T21:21:16.756Z,22.17
2022-10-17T21:23:45.499Z,21.63
2022-10-17T21:26:12.710Z,21.52
2022-10-17T21:28:44.082Z,19.93
2022-10-17T21:31:22.221Z,21.77
2022-10-17T21:33:51.218Z,21.15
2022-10-17T21:36:18.568Z,20.63
2022-10-17T21:38:46.491Z,21.58
2022-10-17T21:41:14.924Z,21.57
2022-10-17T21:43:41.872Z,22.88
2022-10-17T21:46:11.960Z,22.55
2022-10-17T21:48:38.829Z,21.15
2022-10-17T21:51:08.205Z,24.48
2022-10-17T21:53:35.517Z,22.97
2022-10-17T21:56:03.806Z,22.90
2022-10-17T21:58:30.323Z,23.40
2022-10-17T22:01:06.665Z,26.02
2022-10-17T22:03:41.404Z,21.75
2022-10-17T22:06:37.588Z,23.83
2022-10-17T22:08:58.492Z,22.42
2022-10-17T22:11:30.615Z,23.05
2022-10-17T22:14:04.306Z,22.52
2022-10-17T22:16:31.078Z,23.42
2022-10-17T22:19:03.152Z,23.90
2022-10-17T22:21:33.248Z,22.40
2022-10-17T22:24:02.672Z,23.50
2022-10-17T22:26:31.047Z,22.10
2022-10-17T22:28:58.087Z,22.60
2022-10-17T22:31:24.887Z,23.10
2022-10-17T22:33:51.377Z,24.77
2022-10-17T22:36:17.848Z,23.10
2022-10-17T22:38:44.428Z,22.38
2022-10-17T22:41:10.872Z,24.40
2022-10-17T22:43:37.651Z,23.23
2022-10-17T22:46:05.840Z,23.15
2022-10-17T22:48:32.474Z,24.05
2022-10-17T22:50:59.798Z,22.80
2022-10-17T22:53:27.039Z,22.48
2022-10-17T22:55:54.940Z,23.23
2022-10-17T22:58:23.187Z,23.73
2022-10-17T23:00:50.965Z,25.75
2022-10-17T23:03:18.516Z,23.00
2022-10-17T23:05:45.463Z,25.73
2022-10-17T23:08:13.249Z,23.30
2022-10-17T23:10:40.469Z,22.92
2022-10-17T23:13:07.320Z,23.70
2022-10-17T23:15:34.272Z,25.70
2022-10-17T23:18:01.715Z,25.25
2022-10-17T23:20:29.449Z,25.00
2022-10-17T23:22:56.067Z,27.05
2022-10-17T23:25:22.631Z,24.20
2022-10-17T23:27:49.037Z,24.17
2022-10-17T23:30:15.610Z,24.35
2022-10-17T23:32:42.263Z,22.33
2022-10-17T23:35:09.115Z,21.98
2022-10-17T23:37:36.048Z,24.63
2022-10-17T23:40:03.920Z,24.73
2022-10-17T23:42:30.339Z,23.15
2022-10-17T23:44:56.675Z,26.00
2022-10-17T23:47:23.013Z,22.75
2022-10-17T23:49:49.461Z,22.45
2022-10-17T23:52:16.971Z,22.80
2022-10-17T23:54:44.086Z,23.30
2022-10-17T23:57:10.459Z,21.60
2022-10-17T23:59:36.898Z,22.52
